createdAt,value
2023-02-25T00:02:13.564Z,0
2023-02-25T00:02:54.115Z,0
2023-02-25T00:03:34.591Z,0
2023-02-25T00:04:15.116Z,0
2023-02-25T00:04:55.658Z,0
2023-02-25T00:05:36.198Z,0
2023-02-25T00:06:16.724Z,0
2023-02-25T00:06:57.226Z,0
2023-02-25T00:07:37.745Z,0
2023-02-25T00:08:18.308Z,0
2023-02-25T00:15:03.608Z,0
2023-02-25T00:15:44.121Z,0
2023-02-25T00:16:25.047Z,0
2023-02-25T00:17:05.254Z,0
2023-02-25T00:17:45.731Z,0
2023-02-25T00:18:26.264Z,0
2023-02-25T00:19:06.773Z,0
2023-02-25T00:19:47.281Z,0
2023-02-25T00:20:27.802Z,0
2023-02-25T00:21:08.317Z,0
2023-02-25T00:27:53.725Z,0
2023-02-25T00:28:34.238Z,0
2023-02-25T00:29:14.763Z,0
2023-02-25T00:29:55.275Z,0
2023-02-25T00:30:35.966Z,0
2023-02-25T00:31:16.469Z,0
2023-02-25T00:31:57.059Z,0
2023-02-25T00:32:37.425Z,0
2023-02-25T00:33:17.951Z,0
2023-02-25T00:33:58.444Z,0
2023-02-25T00:40:43.646Z,0
2023-02-25T00:41:24.163Z,0
2023-02-25T00:42:05.294Z,0
2023-02-25T00:42:45.816Z,0
2023-02-25T00:43:26.321Z,0
2023-02-25T00:44:06.848Z,0
2023-02-25T00:44:47.397Z,0
2023-02-25T00:45:27.912Z,0
2023-02-25T00:46:08.520Z,0
2023-02-25T00:52:13.658Z,0
2023-02-25T00:52:54.176Z,0
2023-02-25T00:53:34.724Z,0
2023-02-25T00:54:15.273Z,0
2023-02-25T00:54:55.828Z,0
2023-02-25T00:55:36.376Z,0
2023-02-25T00:56:16.890Z,0
2023-02-25T00:56:57.377Z,0
2023-02-25T00:57:37.897Z,0
2023-02-25T00:58:18.417Z,0
2023-02-25T01:05:03.579Z,0
2023-02-25T01:05:44.097Z,0
2023-02-25T01:06:24.844Z,0
2023-02-25T01:07:05.126Z,0
2023-02-25T01:07:45.647Z,0
2023-02-25T01:08:26.161Z,0
2023-02-25T01:09:06.674Z,0
2023-02-25T01:09:47.196Z,0
2023-02-25T01:10:27.716Z,0
2023-02-25T01:11:08.368Z,0
2023-02-25T01:17:53.599Z,0
2023-02-25T01:18:34.115Z,0
2023-02-25T01:19:14.625Z,0
2023-02-25T01:19:55.149Z,0
2023-02-25T01:20:35.668Z,0
2023-02-25T01:21:16.184Z,0
2023-02-25T01:21:56.743Z,0
2023-02-25T01:22:37.286Z,0
2023-02-25T01:23:17.827Z,0
2023-02-25T01:23:58.362Z,0
2023-02-25T01:30:03.451Z,0
2023-02-25T01:30:44.039Z,0
2023-02-25T01:31:24.645Z,0
2023-02-25T01:32:05.244Z,0
2023-02-25T01:32:45.726Z,0
2023-02-25T01:33:27.002Z,0
2023-02-25T01:34:06.746Z,0
2023-02-25T01:34:47.283Z,0
2023-02-25T01:35:27.835Z,0
2023-02-25T01:36:08.375Z,0
2023-02-25T01:41:33.269Z,0
2023-02-25T01:43:46.922Z,0
2023-02-25T01:44:27.456Z,0
2023-02-25T01:45:08.002Z,0
2023-02-25T01:45:48.521Z,0
2023-02-25T01:46:29.122Z,0
2023-02-25T01:47:09.591Z,0
2023-02-25T01:47:50.124Z,0
2023-02-25T01:48:30.741Z,0
2023-02-25T01:49:11.292Z,0
2023-02-25T01:49:52.671Z,0
2023-02-25T01:54:36.961Z,0
2023-02-25T01:55:17.482Z,0
2023-02-25T01:55:58.001Z,0
2023-02-25T01:56:38.548Z,0
2023-02-25T01:57:19.076Z,0
2023-02-25T01:57:59.622Z,0
2023-02-25T01:58:40.136Z,0
2023-02-25T01:59:21.674Z,0
2023-02-25T02:04:46.797Z,0
2023-02-25T02:05:27.317Z,0
2023-02-25T02:06:07.830Z,0
2023-02-25T02:06:48.353Z,0
2023-02-25T02:07:28.866Z,0
2023-02-25T02:08:09.384Z,0
2023-02-25T02:08:49.898Z,0
2023-02-25T02:09:30.418Z,0
2023-02-25T02:10:10.934Z,0
2023-02-25T02:10:51.455Z,0
2023-02-25T02:11:31.986Z,0
2023-02-25T02:17:36.753Z,0
2023-02-25T02:18:17.269Z,0
2023-02-25T02:18:57.787Z,0
2023-02-25T02:19:38.303Z,0
2023-02-25T02:20:18.890Z,0
2023-02-25T02:20:59.403Z,0
2023-02-25T02:21:39.922Z,0
2023-02-25T02:22:20.440Z,0
2023-02-25T02:23:01.473Z,0
2023-02-25T02:29:47.413Z,0
2023-02-25T02:30:28.195Z,0
2023-02-25T02:31:08.804Z,0
2023-02-25T02:31:49.313Z,0
2023-02-25T02:32:29.802Z,0
2023-02-25T02:33:10.264Z,0
2023-02-25T02:33:50.761Z,0
2023-02-25T02:34:32.161Z,0
2023-02-25T02:39:16.630Z,0
2023-02-25T02:39:57.149Z,0
2023-02-25T02:40:37.665Z,0
2023-02-25T02:41:18.180Z,0
2023-02-25T02:41:58.702Z,0
2023-02-25T02:42:39.214Z,0
2023-02-25T02:43:19.737Z,0
2023-02-25T02:44:00.253Z,0
2023-02-25T02:44:40.767Z,0
2023-02-25T02:45:21.793Z,0
2023-02-25T02:51:26.686Z,0
2023-02-25T02:52:07.194Z,0
2023-02-25T02:52:47.714Z,0
2023-02-25T02:53:28.231Z,0
2023-02-25T02:54:08.746Z,0
2023-02-25T02:54:49.293Z,0
2023-02-25T02:55:29.878Z,0
2023-02-25T02:56:10.400Z,0
2023-02-25T02:56:50.946Z,0
2023-02-25T02:57:31.473Z,0
2023-02-25T02:58:11.982Z,0
2023-02-25T03:04:16.774Z,0
2023-02-25T03:04:57.216Z,0
2023-02-25T03:05:37.733Z,0
2023-02-25T03:06:18.262Z,0
2023-02-25T03:06:58.795Z,0
2023-02-25T03:07:39.320Z,0
2023-02-25T03:08:19.846Z,0
2023-02-25T03:09:00.346Z,0
2023-02-25T03:09:40.936Z,0
2023-02-25T03:10:22.268Z,0
2023-02-25T03:15:46.643Z,0
2023-02-25T03:16:27.215Z,0
2023-02-25T03:17:07.694Z,0
2023-02-25T03:17:48.199Z,0
2023-02-25T03:18:28.744Z,0
2023-02-25T03:19:09.259Z,0
2023-02-25T03:19:49.777Z,0
2023-02-25T03:20:30.295Z,0
2023-02-25T03:21:10.817Z,0
2023-02-25T03:21:51.360Z,0
2023-02-25T03:22:31.880Z,0
2023-02-25T03:27:57.045Z,0
2023-02-25T03:28:37.593Z,0
2023-02-25T03:29:18.075Z,0
2023-02-25T03:29:58.587Z,0
2023-02-25T03:30:40.136Z,0
2023-02-25T03:31:20.645Z,0
2023-02-25T03:32:01.186Z,0
2023-02-25T03:32:41.700Z,0
2023-02-25T03:38:06.703Z,0
2023-02-25T03:38:47.224Z,0
2023-02-25T03:39:27.740Z,0
2023-02-25T03:40:08.257Z,0
2023-02-25T03:40:48.796Z,0
2023-02-25T03:41:29.325Z,0
2023-02-25T03:42:09.928Z,0
2023-02-25T03:42:50.392Z,0
2023-02-25T03:43:30.905Z,0
2023-02-25T03:44:12.171Z,0
2023-02-25T03:50:17.004Z,0
2023-02-25T03:50:57.526Z,0
2023-02-25T03:51:38.034Z,0
2023-02-25T03:52:18.583Z,0
2023-02-25T03:52:59.117Z,0
2023-02-25T03:53:39.717Z,0
2023-02-25T03:54:20.220Z,0
2023-02-25T03:55:00.780Z,0
2023-02-25T03:55:41.317Z,0
2023-02-25T03:56:22.354Z,0
2023-02-25T04:02:26.726Z,0
2023-02-25T04:03:07.184Z,0
2023-02-25T04:03:47.751Z,0
2023-02-25T04:04:28.357Z,0
2023-02-25T04:05:08.792Z,0
2023-02-25T04:05:51.093Z,0
2023-02-25T04:06:31.610Z,0
2023-02-25T04:11:56.764Z,0
2023-02-25T04:12:37.291Z,0
2023-02-25T04:13:17.803Z,0
2023-02-25T04:13:58.332Z,0
2023-02-25T04:14:38.873Z,0
2023-02-25T04:15:19.423Z,0
2023-02-25T04:15:59.988Z,0
2023-02-25T04:16:40.452Z,0
2023-02-25T04:17:21.514Z,0
2023-02-25T04:20:40.543Z,0
2023-02-25T04:21:21.095Z,0
2023-02-25T04:22:01.613Z,0
2023-02-25T04:22:42.132Z,0
2023-02-25T04:23:22.651Z,0
2023-02-25T04:24:03.177Z,0
2023-02-25T04:24:43.713Z,0
2023-02-25T04:25:24.230Z,0
2023-02-25T04:26:04.752Z,0
2023-02-25T04:26:45.265Z,0
2023-02-25T04:31:30.833Z,0
2023-02-25T04:32:11.318Z,0
2023-02-25T04:32:53.299Z,0
2023-02-25T04:33:33.707Z,0
2023-02-25T04:34:14.226Z,0
2023-02-25T04:34:54.811Z,0
2023-02-25T04:35:35.333Z,0
2023-02-25T04:42:20.635Z,0
2023-02-25T04:43:01.148Z,0
2023-02-25T04:43:41.670Z,0
2023-02-25T04:44:22.214Z,0
2023-02-25T04:45:02.742Z,0
2023-02-25T04:45:43.280Z,0
2023-02-25T04:46:24.053Z,0
2023-02-25T04:47:04.304Z,0
2023-02-25T04:47:44.846Z,0
2023-02-25T04:48:25.349Z,0
2023-02-25T04:53:51.303Z,0
2023-02-25T04:54:32.424Z,0
2023-02-25T04:55:12.942Z,0
2023-02-25T04:55:53.466Z,0
2023-02-25T04:56:33.971Z,0
2023-02-25T04:57:14.496Z,0
2023-02-25T04:57:55.012Z,0
2023-02-25T04:58:35.527Z,0
2023-02-25T05:04:40.417Z,0
2023-02-25T05:05:20.864Z,0
2023-02-25T05:06:01.378Z,0
2023-02-25T05:06:41.915Z,0
2023-02-25T05:07:22.470Z,0
2023-02-25T05:08:02.965Z,0
2023-02-25T05:08:43.484Z,0
2023-02-25T05:09:24.031Z,0
2023-02-25T05:10:04.554Z,0
2023-02-25T05:10:45.066Z,0
2023-02-25T05:11:25.583Z,0
2023-02-25T05:14:50.226Z,0
2023-02-25T05:15:30.728Z,0
2023-02-25T05:16:11.305Z,0
2023-02-25T05:16:51.817Z,0
2023-02-25T05:17:32.354Z,0
2023-02-25T05:18:12.880Z,0
2023-02-25T05:18:53.384Z,0
2023-02-25T05:19:34.005Z,0
2023-02-25T05:20:14.622Z,0
2023-02-25T05:20:55.107Z,0
2023-02-25T05:21:35.622Z,0
2023-02-25T05:27:40.344Z,0
2023-02-25T05:28:20.891Z,0
2023-02-25T05:29:01.406Z,0
2023-02-25T05:29:41.959Z,0
2023-02-25T05:30:22.421Z,0
2023-02-25T05:31:03.132Z,0
2023-02-25T05:31:43.700Z,0
2023-02-25T05:32:24.802Z,0
2023-02-25T05:33:05.285Z,0
2023-02-25T05:39:50.442Z,0
2023-02-25T05:40:30.996Z,0
2023-02-25T05:41:11.490Z,0
2023-02-25T05:41:52.008Z,0
2023-02-25T05:42:32.524Z,0
2023-02-25T05:43:13.043Z,0
2023-02-25T05:43:53.563Z,0
2023-02-25T05:44:34.108Z,0
2023-02-25T05:45:14.628Z,0
2023-02-25T05:45:55.143Z,0
2023-02-25T05:52:00.663Z,4
2023-02-25T05:52:41.225Z,4
2023-02-25T05:53:21.759Z,4
2023-02-25T05:54:02.326Z,4
2023-02-25T05:54:43.630Z,4
2023-02-25T05:55:24.136Z,8
2023-02-25T05:56:05.214Z,4
2023-02-25T06:02:50.670Z,16
2023-02-25T06:03:31.248Z,20
2023-02-25T06:04:11.700Z,20
2023-02-25T06:04:52.206Z,24
2023-02-25T06:05:32.754Z,28
2023-02-25T06:06:14.066Z,32
2023-02-25T06:06:55.546Z,32
2023-02-25T06:13:00.452Z,76
2023-02-25T06:13:40.960Z,84
2023-02-25T06:14:21.498Z,92
2023-02-25T06:16:35.133Z,124
2023-02-25T06:17:15.565Z,128
2023-02-25T06:17:56.081Z,136
2023-02-25T06:18:36.969Z,144
2023-02-25T06:19:17.229Z,148
2023-02-25T06:19:57.770Z,160
2023-02-25T06:20:38.282Z,168
2023-02-25T06:21:18.807Z,180
2023-02-25T06:21:59.354Z,192
2023-02-25T06:22:39.902Z,204
2023-02-25T06:29:25.148Z,328
2023-02-25T06:30:05.662Z,332
2023-02-25T06:30:46.225Z,328
2023-02-25T06:31:26.766Z,324
2023-02-25T06:32:07.308Z,320
2023-02-25T06:32:47.778Z,328
2023-02-25T06:33:28.294Z,332
2023-02-25T06:34:08.821Z,336
2023-02-25T06:34:49.361Z,336
2023-02-25T06:35:29.889Z,340
2023-02-25T06:40:14.808Z,368
2023-02-25T06:40:55.222Z,376
2023-02-25T06:43:08.302Z,416
2023-02-25T06:43:48.820Z,424
2023-02-25T06:44:29.345Z,428
2023-02-25T06:45:09.858Z,436
2023-02-25T06:45:50.399Z,440
2023-02-25T06:46:30.898Z,448
2023-02-25T06:47:11.413Z,472
2023-02-25T06:47:51.938Z,508
2023-02-25T06:48:32.474Z,552
2023-02-25T06:49:12.993Z,600
2023-02-25T06:55:58.191Z,1088
2023-02-25T06:56:38.706Z,1136
2023-02-25T06:57:20.182Z,1176
2023-02-25T06:58:00.729Z,1208
2023-02-25T06:58:41.373Z,1204
2023-02-25T06:59:21.905Z,1196
2023-02-25T07:00:02.414Z,1192
2023-02-25T07:00:42.929Z,1200
2023-02-25T07:07:28.204Z,1604
2023-02-25T07:08:08.728Z,1640
2023-02-25T07:08:49.291Z,1660
2023-02-25T07:09:29.788Z,1660
2023-02-25T07:10:10.304Z,1660
2023-02-25T07:10:50.843Z,1664
2023-02-25T07:11:31.333Z,1676
2023-02-25T07:12:11.854Z,1684
2023-02-25T07:12:52.368Z,1708
2023-02-25T07:13:32.887Z,1724
2023-02-25T07:20:18.125Z,1800
2023-02-25T07:20:58.641Z,1816
2023-02-25T07:21:39.189Z,1864
2023-02-25T07:22:19.803Z,1912
2023-02-25T07:23:00.273Z,1948
2023-02-25T07:23:40.811Z,2000
2023-02-25T07:24:21.325Z,2072
2023-02-25T07:25:01.891Z,2136
2023-02-25T07:25:42.358Z,2180
2023-02-25T07:26:23.211Z,2236
2023-02-25T07:32:28.556Z,2508
2023-02-25T07:33:08.985Z,2536
2023-02-25T07:33:49.447Z,2540
2023-02-25T07:34:29.950Z,2512
2023-02-25T07:35:10.533Z,2500
2023-02-25T07:35:51.063Z,2544
2023-02-25T07:36:31.613Z,2616
2023-02-25T07:37:12.134Z,2700
2023-02-25T07:37:52.661Z,2804
2023-02-25T07:38:33.202Z,2872
2023-02-25T07:44:38.093Z,3316
2023-02-25T07:45:18.608Z,3236
2023-02-25T07:45:59.145Z,3184
2023-02-25T07:46:39.648Z,3148
2023-02-25T07:47:20.155Z,3128
2023-02-25T07:48:00.672Z,3156
2023-02-25T07:48:41.216Z,3216
2023-02-25T07:49:21.705Z,3272
2023-02-25T07:50:02.260Z,3336
2023-02-25T07:50:43.025Z,3416
2023-02-25T07:57:28.344Z,4292
2023-02-25T07:58:08.835Z,4256
2023-02-25T07:58:49.393Z,4272
2023-02-25T07:59:29.904Z,4316
2023-02-25T08:00:10.463Z,4468
2023-02-25T08:00:50.993Z,4664
2023-02-25T08:01:31.489Z,4812
2023-02-25T08:02:12.085Z,4940
2023-02-25T08:02:52.666Z,5004
2023-02-25T08:03:33.119Z,5060
2023-02-25T08:08:13.792Z,4504
2023-02-25T08:08:54.303Z,4400
2023-02-25T08:09:34.815Z,4312
2023-02-25T08:10:15.351Z,4244
2023-02-25T08:10:55.874Z,4176
2023-02-25T08:11:36.393Z,4108
2023-02-25T08:12:16.920Z,4092
2023-02-25T08:12:57.464Z,4120
2023-02-25T08:13:37.984Z,4160
2023-02-25T08:14:18.474Z,4172
2023-02-25T08:19:43.493Z,4704
2023-02-25T08:20:24.012Z,4768
2023-02-25T08:21:04.540Z,4824
2023-02-25T08:21:45.043Z,4860
2023-02-25T08:22:25.564Z,4908
2023-02-25T08:23:06.125Z,4940
2023-02-25T08:23:46.665Z,4968
2023-02-25T08:24:27.180Z,4968
2023-02-25T08:25:07.701Z,4956
2023-02-25T08:25:48.214Z,4944
2023-02-25T08:26:28.738Z,4908
2023-02-25T08:31:49.527Z,5352
2023-02-25T08:32:29.984Z,5336
2023-02-25T08:33:10.395Z,5384
2023-02-25T08:33:50.895Z,5476
2023-02-25T08:34:31.422Z,5544
2023-02-25T08:35:11.960Z,5532
2023-02-25T08:35:52.488Z,5576
2023-02-25T08:36:33.002Z,5656
2023-02-25T08:37:13.519Z,5796
2023-02-25T08:39:26.318Z,6336
2023-02-25T08:40:06.848Z,6340
2023-02-25T08:40:47.362Z,6296
2023-02-25T08:41:27.878Z,6188
2023-02-25T08:42:09.250Z,6124
2023-02-25T08:42:49.784Z,6104
2023-02-25T08:43:30.360Z,6160
2023-02-25T08:44:10.928Z,6244
2023-02-25T08:44:51.346Z,6320
2023-02-25T08:50:56.066Z,6196
2023-02-25T08:51:36.594Z,6128
2023-02-25T08:52:17.106Z,6104
2023-02-25T08:52:57.656Z,6144
2023-02-25T08:53:38.221Z,6224
2023-02-25T08:54:19.570Z,6292
2023-02-25T08:55:00.114Z,6360
2023-02-25T08:55:40.643Z,6532
2023-02-25T08:56:21.977Z,6788
2023-02-25T09:01:46.208Z,8320
2023-02-25T09:02:26.727Z,8328
2023-02-25T09:03:07.242Z,8376
2023-02-25T09:03:47.771Z,8460
2023-02-25T09:04:28.323Z,8584
2023-02-25T09:05:08.791Z,8732
2023-02-25T09:05:49.343Z,8768
2023-02-25T09:06:29.875Z,8740
2023-02-25T09:07:10.416Z,8788
2023-02-25T09:07:50.925Z,8964
2023-02-25T09:13:16.018Z,9724
2023-02-25T09:13:56.542Z,9800
2023-02-25T09:14:37.083Z,9900
2023-02-25T09:15:17.623Z,9956
2023-02-25T09:15:58.128Z,9900
2023-02-25T09:16:38.742Z,9964
2023-02-25T09:17:19.836Z,10088
2023-02-25T09:18:00.378Z,9992
2023-02-25T09:18:40.903Z,9976
2023-02-25T09:25:22.583Z,9164
2023-02-25T09:26:03.097Z,8960
2023-02-25T09:26:43.639Z,8828
2023-02-25T09:27:24.173Z,8684
2023-02-25T09:28:04.684Z,8756
2023-02-25T09:28:45.236Z,8928
2023-02-25T09:29:25.785Z,9152
2023-02-25T09:30:06.300Z,9304
2023-02-25T09:30:46.905Z,9572
2023-02-25T09:31:27.746Z,9868
2023-02-25T09:38:12.539Z,9532
2023-02-25T09:38:53.053Z,9436
2023-02-25T09:39:33.574Z,9392
2023-02-25T09:40:14.087Z,9336
2023-02-25T09:40:54.613Z,9300
2023-02-25T09:41:35.168Z,9364
2023-02-25T09:42:16.507Z,9492
2023-02-25T09:42:57.054Z,9688
2023-02-25T09:43:37.612Z,9896
2023-02-25T09:49:42.363Z,10244
2023-02-25T09:50:22.916Z,10272
2023-02-25T09:51:03.464Z,10424
2023-02-25T09:51:43.973Z,10596
2023-02-25T09:52:24.513Z,10728
2023-02-25T09:53:05.031Z,10860
2023-02-25T09:53:45.588Z,11024
2023-02-25T09:54:27.160Z,11436
2023-02-25T10:01:12.513Z,11232
2023-02-25T10:01:53.555Z,11536
2023-02-25T10:02:34.182Z,12148
2023-02-25T10:03:14.745Z,12848
2023-02-25T10:03:55.112Z,13724
2023-02-25T10:04:35.672Z,14664
2023-02-25T10:05:16.179Z,15432
2023-02-25T10:05:57.382Z,15660
2023-02-25T10:12:42.754Z,11436
2023-02-25T10:13:23.274Z,10628
2023-02-25T10:14:03.803Z,10184
2023-02-25T10:14:44.331Z,9988
2023-02-25T10:15:24.831Z,9716
2023-02-25T10:16:05.998Z,9088
2023-02-25T10:16:47.533Z,8296
2023-02-25T10:22:52.350Z,4644
2023-02-25T10:23:32.878Z,4828
2023-02-25T10:24:13.406Z,5060
2023-02-25T10:24:54.018Z,5276
2023-02-25T10:25:34.529Z,5528
2023-02-25T10:26:15.069Z,5748
2023-02-25T10:26:55.751Z,5760
2023-02-25T10:27:36.273Z,5652
2023-02-25T10:28:16.818Z,5788
2023-02-25T10:28:58.123Z,6144
2023-02-25T10:33:02.415Z,6300
2023-02-25T10:33:42.898Z,5996
2023-02-25T10:34:23.479Z,5704
2023-02-25T10:35:04.002Z,5536
2023-02-25T10:35:44.520Z,5520
2023-02-25T10:36:25.066Z,5516
2023-02-25T10:37:05.585Z,5436
2023-02-25T10:37:46.111Z,5332
2023-02-25T10:38:26.635Z,5184
2023-02-25T10:39:07.172Z,5140
2023-02-25T10:45:52.600Z,5880
2023-02-25T10:46:33.233Z,5716
2023-02-25T10:47:13.652Z,5556
2023-02-25T10:47:54.163Z,5400
2023-02-25T10:48:34.722Z,5252
2023-02-25T10:49:16.164Z,5184
2023-02-25T10:49:55.779Z,5252
2023-02-25T10:50:45.249Z,5320
2023-02-25T10:51:16.811Z,5260
2023-02-25T10:51:57.363Z,5116
2023-02-25T10:56:42.439Z,5160
2023-02-25T10:57:22.895Z,5304
2023-02-25T10:58:03.423Z,5592
2023-02-25T10:58:43.964Z,5928
2023-02-25T10:59:24.481Z,6032
2023-02-25T11:00:05.000Z,6200
2023-02-25T11:00:45.544Z,6572
2023-02-25T11:01:26.518Z,6788
2023-02-25T11:02:06.676Z,6784
2023-02-25T11:02:47.227Z,6864
2023-02-25T11:09:32.482Z,8364
2023-02-25T11:10:13.046Z,8568
2023-02-25T11:10:53.537Z,8452
2023-02-25T11:11:34.066Z,8016
2023-02-25T11:12:14.572Z,7600
2023-02-25T11:12:55.141Z,7624
2023-02-25T11:13:35.650Z,8008
2023-02-25T11:14:16.186Z,8252
2023-02-25T11:14:56.706Z,8200
2023-02-25T11:15:45.092Z,7820
2023-02-25T11:22:23.379Z,6688
2023-02-25T11:23:03.911Z,6516
2023-02-25T11:23:44.457Z,6460
2023-02-25T11:24:24.999Z,6584
2023-02-25T11:25:05.514Z,6728
2023-02-25T11:25:46.030Z,6660
2023-02-25T11:26:26.569Z,6296
2023-02-25T11:27:07.171Z,6148
2023-02-25T11:27:47.616Z,6028
2023-02-25T11:33:52.542Z,5136
2023-02-25T11:34:32.968Z,4960
2023-02-25T11:35:54.779Z,4292
2023-02-25T11:36:35.284Z,3952
2023-02-25T11:37:15.939Z,3776
2023-02-25T11:37:56.458Z,3640
2023-02-25T11:38:36.998Z,3440
2023-02-25T11:39:18.393Z,3332
2023-02-25T11:44:03.169Z,3324
2023-02-25T11:44:43.402Z,3136
2023-02-25T11:45:23.931Z,2956
2023-02-25T11:46:04.498Z,2840
2023-02-25T11:46:45.027Z,2688
2023-02-25T11:47:25.534Z,2500
2023-02-25T11:48:06.524Z,2300
2023-02-25T11:48:47.041Z,2124
2023-02-25T11:49:27.567Z,1976
2023-02-25T11:54:52.884Z,2240
2023-02-25T11:55:33.421Z,2624
2023-02-25T11:56:13.957Z,2948
2023-02-25T11:56:54.471Z,3260
2023-02-25T11:57:35.893Z,3372
2023-02-25T11:58:16.451Z,3132
2023-02-25T12:00:30.049Z,2652
2023-02-25T12:01:12.455Z,2612
2023-02-25T12:01:52.406Z,2616
2023-02-25T12:02:34.649Z,2716
2023-02-25T12:04:49.837Z,3032
2023-02-25T12:05:30.427Z,3184
2023-02-25T12:06:10.922Z,3416
2023-02-25T12:06:51.402Z,3664
2023-02-25T12:07:31.921Z,3844
2023-02-25T12:08:14.149Z,3896
2023-02-25T12:08:53.636Z,3900
2023-02-25T12:09:34.148Z,3904
2023-02-25T12:10:14.681Z,3944
2023-02-25T12:16:19.573Z,5108
2023-02-25T12:17:00.035Z,5264
2023-02-25T12:17:40.535Z,5456
2023-02-25T12:18:21.092Z,5736
2023-02-25T12:19:02.654Z,6108
2023-02-25T12:19:42.191Z,6544
2023-02-25T12:21:55.750Z,7496
2023-02-25T12:22:39.915Z,7524
2023-02-25T12:23:21.336Z,7540
2023-02-25T12:24:03.532Z,7600
2023-02-25T12:26:17.472Z,7720
2023-02-25T12:26:58.019Z,7784
2023-02-25T12:27:38.696Z,7952
2023-02-25T12:28:19.099Z,8208
2023-02-25T12:28:59.644Z,8468
2023-02-25T12:29:40.188Z,8696
2023-02-25T12:30:20.715Z,8980
2023-02-25T12:31:01.336Z,9388
2023-02-25T12:34:22.646Z,10552
2023-02-25T12:35:01.241Z,10368
2023-02-25T12:35:41.778Z,10592
2023-02-25T12:36:22.334Z,10628
2023-02-25T12:37:02.896Z,10528
2023-02-25T12:37:43.390Z,10392
2023-02-25T12:38:23.896Z,10612
2023-02-25T12:40:39.626Z,10412
2023-02-25T12:41:20.106Z,10388
2023-02-25T12:42:02.477Z,31744
2023-02-25T12:42:44.623Z,21440
2023-02-25T12:44:42.525Z,12760
2023-02-25T12:45:23.065Z,8956
2023-02-25T12:46:03.651Z,7584
2023-02-25T12:46:44.099Z,6740
2023-02-25T12:48:58.678Z,5116
2023-02-25T12:49:39.189Z,4908
2023-02-25T12:50:19.704Z,4764
2023-02-25T12:51:00.231Z,4696
2023-02-25T12:51:40.754Z,4684
2023-02-25T12:52:21.320Z,4700
2023-02-25T12:53:01.784Z,4740
2023-02-25T12:53:42.339Z,4788
2023-02-25T12:54:22.855Z,4828
2023-02-25T12:55:03.379Z,4872
2023-02-25T13:01:48.776Z,6240
2023-02-25T13:02:29.303Z,6332
2023-02-25T13:03:09.850Z,6500
2023-02-25T13:03:50.722Z,6808
2023-02-25T13:04:30.881Z,7268
2023-02-25T13:05:11.400Z,7520
2023-02-25T13:05:51.922Z,7652
2023-02-25T13:06:32.433Z,7756
2023-02-25T13:07:12.950Z,7772
2023-02-25T13:07:53.503Z,7812
2023-02-25T13:14:35.440Z,7476
2023-02-25T13:15:16.010Z,7596
2023-02-25T13:15:56.610Z,7748
2023-02-25T13:16:37.211Z,7864
2023-02-25T13:17:17.760Z,7908
2023-02-25T13:17:58.334Z,7972
2023-02-25T13:18:38.869Z,8036
2023-02-25T13:19:19.424Z,8200
2023-02-25T13:19:59.972Z,8340
2023-02-25T13:20:40.549Z,8528
2023-02-25T13:26:45.431Z,6684
2023-02-25T13:27:25.972Z,6668
2023-02-25T13:28:06.527Z,6776
2023-02-25T13:28:47.082Z,7052
2023-02-25T13:29:27.626Z,7420
2023-02-25T13:30:08.162Z,7832
2023-02-25T13:30:48.714Z,8368
2023-02-25T13:31:29.286Z,8888
2023-02-25T13:32:09.879Z,9548
2023-02-25T13:32:50.348Z,9832
2023-02-25T13:38:55.301Z,8180
2023-02-25T13:39:35.814Z,7628
2023-02-25T13:40:16.359Z,7280
2023-02-25T13:40:56.915Z,7320
2023-02-25T13:41:37.463Z,7552
2023-02-25T13:42:18.111Z,7620
2023-02-25T13:42:58.632Z,7520
2023-02-25T13:43:39.144Z,7164
2023-02-25T13:44:19.700Z,6928
2023-02-25T13:45:00.214Z,6784
2023-02-25T13:51:45.412Z,5296
2023-02-25T13:52:25.934Z,5448
2023-02-25T13:53:06.451Z,5456
2023-02-25T13:53:46.964Z,5556
2023-02-25T13:54:27.542Z,5736
2023-02-25T13:55:08.065Z,5816
2023-02-25T13:55:48.587Z,9808
2023-02-25T13:56:29.100Z,5728
2023-02-25T13:57:09.618Z,5960
2023-02-25T13:57:50.173Z,6220
2023-02-25T14:04:35.572Z,5488
2023-02-25T14:05:16.061Z,12956
2023-02-25T14:05:56.607Z,13756
2023-02-25T14:06:37.124Z,14600
2023-02-25T14:07:17.641Z,15336
2023-02-25T14:07:58.160Z,15824
2023-02-25T14:08:38.702Z,16036
2023-02-25T14:09:19.222Z,12128
2023-02-25T14:09:59.777Z,14448
2023-02-25T14:10:40.311Z,13892
2023-02-25T14:16:45.376Z,11012
2023-02-25T14:17:25.923Z,10012
2023-02-25T14:18:06.466Z,9732
2023-02-25T14:18:47.024Z,9572
2023-02-25T14:19:27.536Z,9412
2023-02-25T14:20:08.151Z,9072
2023-02-25T14:20:48.592Z,8896
2023-02-25T14:21:29.143Z,8768
2023-02-25T14:22:09.670Z,8560
2023-02-25T14:22:50.421Z,8560
2023-02-25T14:28:55.271Z,7724
2023-02-25T14:29:35.790Z,7228
2023-02-25T14:30:16.480Z,6796
2023-02-25T14:30:57.078Z,6452
2023-02-25T14:31:37.528Z,6096
2023-02-25T14:32:18.092Z,5668
2023-02-25T14:32:58.581Z,5276
2023-02-25T14:33:39.094Z,4924
2023-02-25T14:34:19.612Z,4636
2023-02-25T14:35:00.155Z,4484
2023-02-25T14:41:45.473Z,4660
2023-02-25T14:42:26.047Z,4776
2023-02-25T14:43:06.560Z,4796
2023-02-25T14:43:47.111Z,4920
2023-02-25T14:44:27.661Z,5112
2023-02-25T14:45:08.185Z,5376
2023-02-25T14:45:48.708Z,5576
2023-02-25T14:46:29.255Z,5772
2023-02-25T14:47:09.767Z,5956
2023-02-25T14:47:50.314Z,6136
2023-02-25T14:53:55.064Z,5196
2023-02-25T14:54:35.603Z,4936
2023-02-25T14:56:48.675Z,4700
2023-02-25T14:57:29.168Z,4612
2023-02-25T14:58:09.704Z,4492
2023-02-25T14:58:50.224Z,4492
2023-02-25T14:59:30.755Z,4528
2023-02-25T15:00:11.306Z,4656
2023-02-25T15:00:52.561Z,4816
2023-02-25T15:01:33.084Z,4952
2023-02-25T15:03:32.545Z,5628
2023-02-25T15:04:13.780Z,5616
2023-02-25T15:04:54.288Z,5620
2023-02-25T15:05:34.778Z,5376
2023-02-25T15:06:15.313Z,5372
2023-02-25T15:06:55.816Z,4976
2023-02-25T15:07:36.321Z,4744
2023-02-25T15:08:16.843Z,4428
2023-02-25T15:08:57.356Z,4076
2023-02-25T15:15:02.640Z,4212
2023-02-25T15:15:44.585Z,4008
2023-02-25T15:16:23.689Z,3732
2023-02-25T15:17:04.206Z,3556
2023-02-25T15:17:44.718Z,3336
2023-02-25T15:18:25.242Z,3052
2023-02-25T15:19:05.751Z,2788
2023-02-25T15:19:46.270Z,2540
2023-02-25T15:20:26.786Z,2376
2023-02-25T15:21:07.287Z,2296
2023-02-25T15:25:52.660Z,2428
2023-02-25T15:26:33.199Z,2576
2023-02-25T15:27:13.696Z,2612
2023-02-25T15:27:56.420Z,2596
2023-02-25T15:28:34.736Z,2492
2023-02-25T15:29:15.284Z,2264
2023-02-25T15:29:55.797Z,2048
2023-02-25T15:30:36.327Z,1900
2023-02-25T15:31:16.881Z,1740
2023-02-25T15:31:57.519Z,1596
2023-02-25T15:38:02.750Z,1152
2023-02-25T15:38:43.304Z,1204
2023-02-25T15:39:23.834Z,1280
2023-02-25T15:40:04.438Z,1364
2023-02-25T15:40:44.917Z,1476
2023-02-25T15:41:25.646Z,1620
2023-02-25T15:42:07.865Z,1800
2023-02-25T15:48:12.535Z,2212
2023-02-25T15:48:53.063Z,2136
2023-02-25T15:49:33.625Z,2080
2023-02-25T15:50:14.092Z,2052
2023-02-25T15:50:54.617Z,2012
2023-02-25T15:51:35.127Z,2004
2023-02-25T15:52:15.644Z,1872
2023-02-25T15:52:56.164Z,1648
2023-02-25T15:53:36.688Z,1440
2023-02-25T15:54:17.224Z,1280
2023-02-25T16:01:02.452Z,1004
2023-02-25T16:01:43.101Z,1028
2023-02-25T16:02:23.431Z,1064
2023-02-25T16:03:11.238Z,1100
2023-02-25T16:03:44.469Z,1112
2023-02-25T16:04:24.979Z,1092
2023-02-25T16:05:05.503Z,1048
2023-02-25T16:05:46.559Z,1016
2023-02-25T16:06:27.078Z,992
2023-02-25T16:07:07.751Z,956
2023-02-25T16:11:48.275Z,952
2023-02-25T16:12:29.694Z,964
2023-02-25T16:13:10.196Z,944
2023-02-25T16:13:50.713Z,928
2023-02-25T16:14:31.275Z,892
2023-02-25T16:15:11.758Z,828
2023-02-25T16:15:52.336Z,768
2023-02-25T16:16:32.830Z,736
2023-02-25T16:17:15.175Z,728
2023-02-25T16:21:18.316Z,780
2023-02-25T16:21:58.870Z,784
2023-02-25T16:22:39.406Z,788
2023-02-25T16:23:19.929Z,780
2023-02-25T16:24:00.445Z,752
2023-02-25T16:24:40.957Z,740
2023-02-25T16:25:21.538Z,720
2023-02-25T16:26:02.007Z,680
2023-02-25T16:26:42.504Z,624
2023-02-25T16:27:23.030Z,600
2023-02-25T16:34:08.346Z,700
2023-02-25T16:34:48.884Z,680
2023-02-25T16:35:29.398Z,644
2023-02-25T16:36:09.911Z,628
2023-02-25T16:36:50.433Z,612
2023-02-25T16:37:30.951Z,592
2023-02-25T16:38:11.510Z,552
2023-02-25T16:38:52.013Z,528
2023-02-25T16:39:32.549Z,512
2023-02-25T16:40:13.094Z,488
2023-02-25T16:45:38.041Z,204
2023-02-25T16:46:18.552Z,192
2023-02-25T16:46:59.069Z,192